Terminal Aerodrome Forecast
Issued by NWS

Home | Current Version | Previous Version | Text Only | Print | Product List | Glossary On
Versions: 1 2 3 4 5 6 7 8 9 10 11 12 13 14 15
000
FTUS41 KPHI 211724
TAFPNE
TAF
KPNE 211724Z 2118/2218 22004KT P6SM SCT035 SCT250
     FM220000 21005KT P6SM SCT030 BKN250
     FM220700 VRB03KT 6SM BR BKN015
     FM221500 22006KT P6SM BKN035=

USA.gov is the U.S. government's official web portal to all federal, state and local government web resources and services.